createdAt,value
2022-07-29T00:01:00.010Z,45.21
2022-07-29T00:01:59.875Z,45.31
2022-07-29T00:03:52.286Z,44.73
2022-07-29T00:04:52.198Z,44.64
2022-07-29T00:06:44.591Z,45.03
2022-07-29T00:07:44.513Z,45.03
2022-07-29T00:09:44.887Z,45.03
2022-07-29T00:10:36.840Z,45.03
2022-07-29T00:12:29.285Z,44.83
2022-07-29T00:13:32.472Z,44.83
2022-07-29T00:15:21.507Z,44.73
2022-07-29T00:16:21.520Z,44.73
2022-07-29T00:18:13.922Z,44.64
2022-07-29T00:19:13.816Z,44.73
2022-07-29T00:21:06.154Z,44.93
2022-07-29T00:22:06.140Z,44.45
2022-07-29T00:23:58.601Z,44.64
2022-07-29T00:24:58.463Z,44.54
2022-07-29T00:26:50.799Z,44.45
2022-07-29T00:27:50.784Z,44.64
2022-07-29T00:29:43.238Z,44.73
2022-07-29T00:30:43.118Z,44.54
2022-07-29T00:32:35.444Z,44.64
2022-07-29T00:33:35.427Z,44.64
2022-07-29T00:35:27.881Z,44.64
2022-07-29T00:36:27.757Z,44.64
2022-07-29T00:38:19.615Z,44.64
2022-07-29T00:39:19.601Z,44.45
2022-07-29T00:41:12.003Z,44.64
2022-07-29T00:42:11.926Z,44.93
2022-07-29T00:44:04.273Z,44.54
2022-07-29T00:45:04.249Z,44.54
2022-07-29T00:46:57.757Z,44.45
2022-07-29T00:47:57.572Z,44.83
2022-07-29T00:49:49.911Z,44.64
2022-07-29T00:50:49.896Z,44.54
2022-07-29T00:52:42.382Z,44.73
2022-07-29T00:53:42.240Z,44.54
2022-07-29T00:55:35.575Z,44.83
2022-07-29T00:56:35.558Z,44.54
2022-07-29T00:58:27.960Z,44.83
2022-07-29T00:59:35.234Z,44.93
2022-07-29T01:01:20.255Z,44.54
2022-07-29T01:02:20.254Z,44.73
2022-07-29T01:04:13.009Z,44.64
2022-07-29T01:05:12.522Z,44.73
2022-07-29T01:07:04.859Z,44.64
2022-07-29T01:08:04.842Z,44.93
2022-07-29T01:09:57.244Z,44.93
2022-07-29T01:10:57.169Z,45.03
2022-07-29T01:12:49.510Z,45.03
2022-07-29T01:13:49.494Z,44.73
2022-07-29T01:15:41.894Z,44.83
2022-07-29T01:16:41.872Z,44.83
2022-07-29T01:18:34.226Z,45.03
2022-07-29T01:19:34.153Z,45.03
2022-07-29T01:21:26.611Z,45.31
2022-07-29T01:22:26.477Z,45.12
2022-07-29T01:24:19.071Z,45.21
2022-07-29T01:25:18.798Z,45.21
2022-07-29T01:27:11.232Z,45.21
2022-07-29T01:28:11.757Z,45.31
2022-07-29T01:30:05.102Z,45.31
2022-07-29T01:31:03.482Z,45.21
2022-07-29T01:32:55.858Z,45.31
2022-07-29T01:33:55.782Z,45.12
2022-07-29T01:35:49.120Z,44.93
2022-07-29T01:36:49.109Z,44.93
2022-07-29T01:38:41.507Z,44.93
2022-07-29T01:39:41.428Z,44.93
2022-07-29T01:41:33.766Z,44.93
2022-07-29T01:42:33.750Z,44.93
2022-07-29T01:44:26.209Z,45.03
2022-07-29T01:45:26.084Z,44.93
2022-07-29T01:47:19.427Z,45.12
2022-07-29T01:48:19.413Z,45.21
2022-07-29T01:50:11.843Z,45.21
2022-07-29T01:51:11.736Z,45.21
2022-07-29T01:53:04.072Z,45.21
2022-07-29T01:54:04.058Z,45.21
2022-07-29T01:55:56.479Z,45.21
2022-07-29T01:56:56.400Z,45.12
2022-07-29T01:58:48.746Z,45.03
2022-07-29T01:59:48.732Z,45.03
2022-07-29T02:01:41.303Z,45.03
2022-07-29T02:02:41.057Z,45.12
2022-07-29T02:04:33.390Z,45.03
2022-07-29T02:05:33.378Z,45.03
2022-07-29T02:07:25.785Z,44.73
2022-07-29T02:08:25.710Z,45.12
2022-07-29T02:10:18.046Z,44.93
2022-07-29T02:11:18.032Z,45.12
2022-07-29T02:13:10.483Z,45.03
2022-07-29T02:14:10.360Z,45.03
2022-07-29T02:16:03.776Z,44.54
2022-07-29T02:17:03.691Z,44.83
2022-07-29T02:18:56.094Z,44.73
2022-07-29T02:19:56.017Z,44.83
2022-07-29T02:21:48.354Z,44.73
2022-07-29T02:22:48.341Z,44.73
2022-07-29T02:24:40.800Z,44.83
2022-07-29T02:25:40.667Z,44.83
2022-07-29T02:27:33.015Z,44.73
2022-07-29T02:28:33.000Z,44.73
2022-07-29T02:30:25.401Z,44.83
2022-07-29T02:31:25.395Z,44.73
2022-07-29T02:33:17.662Z,44.93
2022-07-29T02:34:18.105Z,44.83
2022-07-29T02:36:10.078Z,44.83
2022-07-29T02:37:09.969Z,44.83
2022-07-29T02:39:03.306Z,44.83
2022-07-29T02:40:03.295Z,44.83
2022-07-29T02:41:55.697Z,44.83
2022-07-29T02:42:55.623Z,44.83
2022-07-29T02:44:47.964Z,44.83
2022-07-29T02:45:47.944Z,44.83
2022-07-29T02:47:41.965Z,44.83
2022-07-29T02:48:40.291Z,44.54
2022-07-29T02:50:32.606Z,44.83
2022-07-29T02:51:43.625Z,44.54
2022-07-29T02:53:24.989Z,44.54
2022-07-29T02:54:24.914Z,44.93
2022-07-29T02:56:17.245Z,44.73
2022-07-29T02:57:17.232Z,44.93
2022-07-29T02:59:09.693Z,45.03
2022-07-29T03:00:09.556Z,44.83
2022-07-29T03:02:02.000Z,44.83
2022-07-29T03:03:01.889Z,45.03
2022-07-29T03:04:54.325Z,45.12
2022-07-29T03:05:54.208Z,45.12
2022-07-29T03:07:46.567Z,45.31
2022-07-29T03:08:46.552Z,45.12
2022-07-29T03:10:39.000Z,45.21
2022-07-29T03:11:41.405Z,44.93
2022-07-29T03:13:31.236Z,44.83
2022-07-29T03:14:31.220Z,44.93
2022-07-29T03:16:23.713Z,45.12
2022-07-29T03:17:23.543Z,45.21
2022-07-29T03:19:15.885Z,45.03
2022-07-29T03:20:15.863Z,45.03
2022-07-29T03:22:09.351Z,45.31
2022-07-29T03:23:09.221Z,45.21
2022-07-29T03:25:01.560Z,45.21
2022-07-29T03:26:01.549Z,45.41
2022-07-29T03:27:53.946Z,45.21
2022-07-29T03:28:53.870Z,45.03
2022-07-29T03:30:46.292Z,45.41
2022-07-29T03:31:46.193Z,45.51
2022-07-29T03:33:38.600Z,45.51
2022-07-29T03:34:38.538Z,45.51
2022-07-29T03:36:30.873Z,45.51
2022-07-29T03:37:30.861Z,45.51
2022-07-29T03:39:23.311Z,45.41
2022-07-29T03:40:23.180Z,45.60
2022-07-29T03:42:15.530Z,45.60
2022-07-29T03:43:15.514Z,45.41
2022-07-29T03:45:07.941Z,45.70
2022-07-29T03:46:07.870Z,45.41
2022-07-29T03:48:01.147Z,45.51
2022-07-29T03:49:00.200Z,45.41
2022-07-29T03:50:52.606Z,45.41
2022-07-29T03:51:52.498Z,45.51
2022-07-29T03:53:44.839Z,45.70
2022-07-29T03:54:44.819Z,45.41
2022-07-29T03:56:37.224Z,45.51
2022-07-29T03:57:37.152Z,45.51
2022-07-29T03:59:30.488Z,45.70
2022-07-29T04:00:30.474Z,45.51
2022-07-29T04:02:28.686Z,45.79
2022-07-29T04:03:23.858Z,45.79
2022-07-29T04:05:16.139Z,45.89
2022-07-29T04:06:16.123Z,45.79
2022-07-29T04:08:08.586Z,45.41
2022-07-29T04:09:09.835Z,45.79
2022-07-29T04:11:00.824Z,45.51
2022-07-29T04:12:03.248Z,45.79
2022-07-29T04:13:53.205Z,45.79
2022-07-29T04:14:53.130Z,45.51
2022-07-29T04:16:46.476Z,45.41
2022-07-29T04:17:46.467Z,45.41
2022-07-29T04:19:38.409Z,45.60
2022-07-29T04:20:39.064Z,45.60
2022-07-29T04:22:30.640Z,45.41
2022-07-29T04:23:30.626Z,45.41
2022-07-29T04:25:23.026Z,45.51
2022-07-29T04:26:22.948Z,45.70
2022-07-29T04:28:15.286Z,45.41
2022-07-29T04:29:15.323Z,45.70
2022-07-29T04:31:07.711Z,45.60
2022-07-29T04:32:07.606Z,45.41
2022-07-29T04:34:00.176Z,45.41
2022-07-29T04:35:00.168Z,45.31
2022-07-29T04:36:52.410Z,45.70
2022-07-29T04:37:52.270Z,45.41
2022-07-29T04:39:45.606Z,45.41
2022-07-29T04:40:45.595Z,45.41
2022-07-29T04:42:46.388Z,45.31
2022-07-29T04:43:37.924Z,45.31
2022-07-29T04:45:30.263Z,45.21
2022-07-29T04:46:30.273Z,45.21
2022-07-29T04:48:28.217Z,45.31
2022-07-29T04:49:22.623Z,45.41
2022-07-29T04:51:15.920Z,45.21
2022-07-29T04:52:15.905Z,45.51
2022-07-29T04:54:09.302Z,45.31
2022-07-29T04:55:09.227Z,45.60
2022-07-29T04:57:02.594Z,45.31
2022-07-29T04:58:02.584Z,45.12
2022-07-29T04:59:55.036Z,45.41
2022-07-29T05:00:54.903Z,45.21
2022-07-29T05:02:47.279Z,45.12
2022-07-29T05:03:47.224Z,45.12
2022-07-29T05:05:39.688Z,45.60
2022-07-29T05:06:39.549Z,45.41
2022-07-29T05:08:31.890Z,45.51
2022-07-29T05:09:31.873Z,45.31
2022-07-29T05:11:29.991Z,45.41
2022-07-29T05:12:24.197Z,45.31
2022-07-29T05:14:16.805Z,45.31
2022-07-29T05:15:16.518Z,45.51
2022-07-29T05:17:08.967Z,45.41
2022-07-29T05:18:08.849Z,45.41
2022-07-29T05:20:01.187Z,45.41
2022-07-29T05:21:01.172Z,45.41
2022-07-29T05:22:53.581Z,45.31
2022-07-29T05:23:53.503Z,45.41
2022-07-29T05:25:45.841Z,45.41
2022-07-29T05:26:45.826Z,45.41
2022-07-29T05:28:39.231Z,45.51
2022-07-29T05:29:44.461Z,45.03
2022-07-29T05:31:31.574Z,45.51
2022-07-29T05:32:31.479Z,45.21
2022-07-29T05:34:23.879Z,45.51
2022-07-29T05:35:23.800Z,45.12
2022-07-29T05:37:16.138Z,45.31
2022-07-29T05:38:16.123Z,45.31
2022-07-29T05:40:08.576Z,45.21
2022-07-29T05:41:08.459Z,45.21
2022-07-29T05:43:00.792Z,45.21
2022-07-29T05:44:00.778Z,45.03
2022-07-29T05:45:53.216Z,45.21
2022-07-29T05:46:53.110Z,45.21
2022-07-29T05:48:45.505Z,45.21
2022-07-29T05:49:45.430Z,45.21
2022-07-29T05:51:38.832Z,45.21
2022-07-29T05:52:38.759Z,45.21
2022-07-29T05:54:31.095Z,45.03
2022-07-29T05:55:31.080Z,45.21
2022-07-29T05:57:23.517Z,45.41
2022-07-29T05:58:23.409Z,45.21
2022-07-29T06:00:15.744Z,45.21
2022-07-29T06:01:15.776Z,45.21
2022-07-29T06:03:08.165Z,45.12
2022-07-29T06:04:08.089Z,45.21
2022-07-29T06:06:00.394Z,45.12
2022-07-29T06:07:00.379Z,45.21
2022-07-29T06:08:52.781Z,45.21
2022-07-29T06:09:52.700Z,45.31
2022-07-29T06:11:45.044Z,45.21
2022-07-29T06:12:45.030Z,45.03
2022-07-29T06:14:37.435Z,45.03
2022-07-29T06:15:37.369Z,45.21
2022-07-29T06:17:29.704Z,45.21
2022-07-29T06:18:29.687Z,45.31
2022-07-29T06:20:26.944Z,45.03
2022-07-29T06:21:22.020Z,45.31
2022-07-29T06:23:14.360Z,45.12
2022-07-29T06:24:14.611Z,45.12
2022-07-29T06:26:06.749Z,45.03
2022-07-29T06:27:06.678Z,45.21
2022-07-29T06:28:59.020Z,45.03
2022-07-29T06:29:59.010Z,45.03
2022-07-29T06:31:51.454Z,45.03
2022-07-29T06:32:51.329Z,45.03
2022-07-29T06:34:43.669Z,45.21
2022-07-29T06:35:46.706Z,45.03
2022-07-29T06:37:36.055Z,45.12
2022-07-29T06:38:40.618Z,45.12
2022-07-29T06:40:29.317Z,45.12
2022-07-29T06:41:29.301Z,44.83
2022-07-29T06:43:21.706Z,45.03
2022-07-29T06:44:21.629Z,44.93
2022-07-29T06:46:14.011Z,44.93
2022-07-29T06:47:13.953Z,45.03
2022-07-29T06:49:06.487Z,45.12
2022-07-29T06:50:07.804Z,45.03
2022-07-29T06:51:58.620Z,45.03
2022-07-29T06:52:58.609Z,45.12
2022-07-29T06:54:51.078Z,44.93
2022-07-29T06:55:50.954Z,45.12
2022-07-29T06:57:43.290Z,45.21
2022-07-29T06:58:43.276Z,45.03
2022-07-29T07:00:35.678Z,45.03
2022-07-29T07:01:35.802Z,44.93
2022-07-29T07:03:27.938Z,44.93
2022-07-29T07:04:27.923Z,44.83
2022-07-29T07:06:20.438Z,44.93
2022-07-29T07:07:20.254Z,44.93
2022-07-29T07:09:12.592Z,45.03
2022-07-29T07:10:12.577Z,44.83
2022-07-29T07:12:05.004Z,44.93
2022-07-29T07:13:04.898Z,44.83
2022-07-29T07:14:57.242Z,44.83
2022-07-29T07:15:57.229Z,45.12
2022-07-29T07:17:49.700Z,45.31
2022-07-29T07:18:49.561Z,45.21
2022-07-29T07:20:41.896Z,44.83
2022-07-29T07:21:41.882Z,44.93
2022-07-29T07:23:34.318Z,45.21
2022-07-29T07:24:34.210Z,45.21
2022-07-29T07:26:26.559Z,45.12
2022-07-29T07:27:26.545Z,45.31
2022-07-29T07:29:18.957Z,45.21
2022-07-29T07:30:18.882Z,45.31
2022-07-29T07:32:11.341Z,45.21
2022-07-29T07:33:11.225Z,45.12
2022-07-29T07:35:04.634Z,45.21
2022-07-29T07:36:04.565Z,45.31
2022-07-29T07:37:56.892Z,45.21
2022-07-29T07:38:56.878Z,45.21
2022-07-29T07:40:49.299Z,45.21
2022-07-29T07:41:49.201Z,45.21
2022-07-29T07:43:41.537Z,45.21
2022-07-29T07:45:03.664Z,45.21
2022-07-29T07:46:33.921Z,45.21
2022-07-29T07:47:34.185Z,45.31
2022-07-29T07:49:26.223Z,45.21
2022-07-29T07:50:26.167Z,45.21
2022-07-29T07:52:18.631Z,45.21
2022-07-29T07:53:18.493Z,45.21
2022-07-29T07:55:10.829Z,45.31
2022-07-29T07:56:12.435Z,45.12
2022-07-29T07:58:03.213Z,45.21
2022-07-29T07:59:03.136Z,45.12
2022-07-29T08:00:55.518Z,45.12
2022-07-29T08:01:56.713Z,45.21
2022-07-29T08:03:47.913Z,45.12
2022-07-29T08:04:47.793Z,45.31
2022-07-29T08:06:40.130Z,45.31
2022-07-29T08:07:40.116Z,45.31
2022-07-29T08:09:32.517Z,45.21
2022-07-29T08:10:32.439Z,45.31
2022-07-29T08:12:24.773Z,45.12
2022-07-29T08:13:24.758Z,45.21
2022-07-29T08:15:17.158Z,45.21
2022-07-29T08:16:17.141Z,45.31
2022-07-29T08:18:09.437Z,45.12
2022-07-29T08:19:09.406Z,45.12
2022-07-29T08:21:01.806Z,45.21
2022-07-29T08:22:01.729Z,45.31
2022-07-29T08:24:00.796Z,45.03
2022-07-29T08:24:54.780Z,45.31
2022-07-29T08:26:46.610Z,45.31
2022-07-29T08:27:46.540Z,45.03
2022-07-29T08:29:39.322Z,45.21
2022-07-29T08:30:38.882Z,45.21
2022-07-29T08:32:52.473Z,45.03
2022-07-29T08:33:31.218Z,45.31
2022-07-29T08:35:23.557Z,44.93
2022-07-29T08:36:23.544Z,44.83
2022-07-29T08:38:15.994Z,45.03
2022-07-29T08:39:15.863Z,44.93
2022-07-29T08:41:08.199Z,44.93
2022-07-29T08:42:08.183Z,45.03
2022-07-29T08:44:00.584Z,44.64
2022-07-29T08:45:00.505Z,44.73
2022-07-29T08:46:52.844Z,45.03
2022-07-29T08:47:52.831Z,44.93
2022-07-29T08:49:46.299Z,44.93
2022-07-29T08:50:47.214Z,44.73
2022-07-29T08:52:38.501Z,45.03
2022-07-29T08:53:38.486Z,44.73
2022-07-29T08:55:30.883Z,44.93
2022-07-29T08:56:30.808Z,44.73
2022-07-29T08:58:25.063Z,44.93
2022-07-29T08:59:23.132Z,44.64
2022-07-29T09:01:15.571Z,44.93
2022-07-29T09:02:15.472Z,44.73
2022-07-29T09:04:07.881Z,44.73
2022-07-29T09:05:07.806Z,45.03
2022-07-29T09:07:00.237Z,44.73
2022-07-29T09:08:00.132Z,44.73
2022-07-29T09:09:52.480Z,45.12
2022-07-29T09:10:52.465Z,44.83
2022-07-29T09:12:44.903Z,44.64
2022-07-29T09:13:44.794Z,44.93
2022-07-29T09:15:37.136Z,44.93
2022-07-29T09:16:52.226Z,44.83
2022-07-29T09:18:30.923Z,45.12
2022-07-29T09:19:29.444Z,44.64
2022-07-29T09:21:21.779Z,45.03
2022-07-29T09:22:21.765Z,45.03
2022-07-29T09:24:14.207Z,45.03
2022-07-29T09:25:14.101Z,44.93
2022-07-29T09:27:07.443Z,45.12
2022-07-29T09:28:07.430Z,45.03
2022-07-29T09:29:59.900Z,44.93
2022-07-29T09:30:59.751Z,44.93
2022-07-29T09:32:52.091Z,44.93
2022-07-29T09:33:52.078Z,44.73
2022-07-29T09:35:44.491Z,45.12
2022-07-29T09:36:44.417Z,44.73
2022-07-29T09:38:36.762Z,44.73
2022-07-29T09:39:36.735Z,44.93
2022-07-29T09:41:29.179Z,44.73
2022-07-29T09:42:29.073Z,45.03
2022-07-29T09:44:21.418Z,44.73
2022-07-29T09:45:21.402Z,44.83
2022-07-29T09:47:13.930Z,44.64
2022-07-29T09:48:13.723Z,45.12
2022-07-29T09:50:06.066Z,44.64
2022-07-29T09:51:06.050Z,44.64
2022-07-29T09:52:58.449Z,44.73
2022-07-29T09:53:58.370Z,44.83
2022-07-29T09:55:50.771Z,44.93
2022-07-29T09:56:50.705Z,44.83
2022-07-29T09:58:43.125Z,44.54
2022-07-29T09:59:50.201Z,44.83
2022-07-29T10:01:35.383Z,44.83
2022-07-29T10:02:35.370Z,45.12
2022-07-29T10:04:27.818Z,44.93
2022-07-29T10:05:35.918Z,44.83
2022-07-29T10:07:20.031Z,44.83
2022-07-29T10:08:20.015Z,44.73
2022-07-29T10:10:12.413Z,44.45
2022-07-29T10:11:12.337Z,44.83
2022-07-29T10:13:08.960Z,44.83
2022-07-29T10:14:04.671Z,44.83
2022-07-29T10:15:56.720Z,44.83
2022-07-29T10:16:56.518Z,44.83
2022-07-29T10:18:48.855Z,44.73
2022-07-29T10:19:48.841Z,44.83
2022-07-29T10:21:41.309Z,44.83
2022-07-29T10:22:52.892Z,44.64
2022-07-29T10:24:33.521Z,44.83
2022-07-29T10:25:33.509Z,44.93
2022-07-29T10:27:26.056Z,44.83
2022-07-29T10:28:25.943Z,44.83
2022-07-29T10:30:18.293Z,44.73
2022-07-29T10:31:18.302Z,44.83
2022-07-29T10:33:10.679Z,44.93
2022-07-29T10:34:10.601Z,44.83
2022-07-29T10:36:02.944Z,44.83
2022-07-29T10:37:02.928Z,44.54
2022-07-29T10:38:55.328Z,44.83
2022-07-29T10:39:55.253Z,44.83
2022-07-29T10:41:47.110Z,44.73
2022-07-29T10:42:47.097Z,44.93
2022-07-29T10:44:39.549Z,44.83
2022-07-29T10:45:39.417Z,44.83
2022-07-29T10:47:31.762Z,44.54
2022-07-29T10:48:31.738Z,44.54
2022-07-29T10:50:24.198Z,44.83
2022-07-29T10:51:24.066Z,44.64
2022-07-29T10:53:16.412Z,44.83
2022-07-29T10:54:16.391Z,44.73
2022-07-29T10:56:11.448Z,44.64
2022-07-29T10:57:08.722Z,44.54
2022-07-29T10:59:01.061Z,45.03
2022-07-29T11:00:01.050Z,44.64
2022-07-29T11:01:53.584Z,44.54
2022-07-29T11:02:53.037Z,45.03
2022-07-29T11:04:45.240Z,44.64
2022-07-29T11:05:45.222Z,44.83
2022-07-29T11:07:45.951Z,44.93
2022-07-29T11:08:37.551Z,44.83
2022-07-29T11:10:31.275Z,44.64
2022-07-29T11:11:30.014Z,44.83
2022-07-29T11:13:22.292Z,44.54
2022-07-29T11:14:26.592Z,44.83
2022-07-29T11:16:16.149Z,44.64
2022-07-29T11:17:14.529Z,44.54
2022-07-29T11:19:06.929Z,45.03
2022-07-29T11:20:06.853Z,44.83
2022-07-29T11:21:59.956Z,44.93
2022-07-29T11:22:59.176Z,45.12
2022-07-29T11:24:51.577Z,45.03
2022-07-29T11:25:52.476Z,44.93
2022-07-29T11:27:43.850Z,44.93
2022-07-29T11:28:43.826Z,44.73
2022-07-29T11:30:36.237Z,44.93
2022-07-29T11:31:36.165Z,44.64
2022-07-29T11:34:29.673Z,44.93
2022-07-29T11:36:28.324Z,44.93
2022-07-29T11:37:28.187Z,44.73
2022-07-29T11:39:13.160Z,45.03
2022-07-29T11:40:13.149Z,44.93
2022-07-29T11:42:13.711Z,45.03
2022-07-29T11:43:07.250Z,45.03
2022-07-29T11:44:58.573Z,45.12
2022-07-29T11:45:57.796Z,45.21
2022-07-29T11:47:50.277Z,45.21
2022-07-29T11:48:50.153Z,45.21
2022-07-29T11:50:44.302Z,45.31
2022-07-29T11:51:56.899Z,45.21
2022-07-29T11:53:34.845Z,45.31
2022-07-29T11:54:38.759Z,44.93
2022-07-29T11:56:27.109Z,45.21
2022-07-29T11:57:36.100Z,45.21
2022-07-29T11:59:19.523Z,45.03
2022-07-29T12:00:19.415Z,45.12
2022-07-29T12:03:11.844Z,45.12
2022-07-29T12:05:10.862Z,45.31
2022-07-29T12:06:04.072Z,45.31
2022-07-29T12:07:56.409Z,45.21
2022-07-29T12:08:56.394Z,45.41
2022-07-29T12:10:48.796Z,45.03
2022-07-29T12:11:48.718Z,45.41
2022-07-29T12:13:41.061Z,45.12
2022-07-29T12:14:41.046Z,45.21
2022-07-29T12:16:33.585Z,45.21
2022-07-29T12:17:33.370Z,45.21
2022-07-29T12:19:26.711Z,45.12
2022-07-29T12:20:26.694Z,45.41
2022-07-29T12:22:19.122Z,45.03
2022-07-29T12:23:19.088Z,45.03
2022-07-29T12:25:32.349Z,45.12
2022-07-29T12:26:25.661Z,45.31
2022-07-29T12:28:03.742Z,45.21
2022-07-29T12:29:03.682Z,45.21
2022-07-29T12:30:56.007Z,45.21
2022-07-29T12:31:58.071Z,45.12
2022-07-29T12:33:49.087Z,45.03
2022-07-29T12:34:48.307Z,45.21
2022-07-29T12:36:40.658Z,45.03
2022-07-29T12:37:41.313Z,45.21
2022-07-29T12:39:33.052Z,45.21
2022-07-29T12:40:32.975Z,45.21
2022-07-29T12:42:25.323Z,45.21
2022-07-29T12:43:25.310Z,45.21
2022-07-29T12:45:17.739Z,45.21
2022-07-29T12:46:17.690Z,45.41
2022-07-29T12:48:09.973Z,45.41
2022-07-29T12:49:10.087Z,45.51
2022-07-29T12:51:02.403Z,45.29
2022-07-29T12:52:02.281Z,45.31
2022-07-29T12:53:54.617Z,45.03
2022-07-29T12:54:54.601Z,45.41
2022-07-29T12:56:47.519Z,45.41
2022-07-29T12:57:46.938Z,45.41
2022-07-29T12:59:39.284Z,45.51
2022-07-29T13:00:39.323Z,45.41
2022-07-29T13:02:31.280Z,45.41
2022-07-29T13:03:35.751Z,45.51
2022-07-29T13:05:23.455Z,45.41
2022-07-29T13:06:23.442Z,45.31
2022-07-29T13:08:20.256Z,45.41
2022-07-29T13:09:15.767Z,45.31
2022-07-29T13:11:08.105Z,45.41
2022-07-29T13:12:08.090Z,45.41
2022-07-29T13:14:06.651Z,45.51
2022-07-29T13:15:00.415Z,45.31
2022-07-29T13:16:52.782Z,45.41
2022-07-29T13:17:52.738Z,45.48
2022-07-29T13:19:46.130Z,45.41
2022-07-29T13:20:46.658Z,45.41
2022-07-29T13:22:38.395Z,45.41
2022-07-29T13:23:38.573Z,45.41
2022-07-29T13:25:30.858Z,45.12
2022-07-29T13:26:30.702Z,45.21
2022-07-29T13:28:23.044Z,45.31
2022-07-29T13:29:23.030Z,45.21
2022-07-29T13:31:15.557Z,45.51
2022-07-29T13:32:15.352Z,45.31
2022-07-29T13:34:07.690Z,45.41
2022-07-29T13:35:07.676Z,45.41
2022-07-29T13:37:01.089Z,45.51
2022-07-29T13:38:01.005Z,45.29
2022-07-29T13:39:53.553Z,45.70
2022-07-29T13:40:53.329Z,45.70
2022-07-29T13:42:45.759Z,45.70
2022-07-29T13:43:45.652Z,45.70
2022-07-29T13:45:38.048Z,45.31
2022-07-29T13:46:39.529Z,45.41
2022-07-29T13:48:30.389Z,45.41
2022-07-29T13:49:30.307Z,45.41
2022-07-29T13:51:22.647Z,45.60
2022-07-29T13:52:22.632Z,45.41
2022-07-29T13:54:15.032Z,45.60
2022-07-29T13:55:14.956Z,45.41
2022-07-29T13:57:07.296Z,45.41
2022-07-29T13:58:07.280Z,45.41
2022-07-29T13:59:59.746Z,45.68
2022-07-29T14:00:59.664Z,45.58
2022-07-29T14:02:51.949Z,45.31
2022-07-29T14:03:51.937Z,45.41
2022-07-29T14:05:44.334Z,45.39
2022-07-29T14:06:44.255Z,45.77
2022-07-29T14:08:36.595Z,45.79
2022-07-29T14:09:41.055Z,45.41
2022-07-29T14:11:29.978Z,45.89
2022-07-29T14:12:29.903Z,45.89
2022-07-29T14:14:22.239Z,45.89
2022-07-29T14:15:22.227Z,45.77
2022-07-29T14:17:15.387Z,45.87
2022-07-29T14:18:14.554Z,45.89
2022-07-29T14:20:06.901Z,45.31
2022-07-29T14:21:06.888Z,45.79
2022-07-29T14:22:59.561Z,45.39
2022-07-29T14:23:59.455Z,45.51
2022-07-29T14:25:51.793Z,45.99
2022-07-29T14:26:51.833Z,45.87
2022-07-29T14:28:44.240Z,45.70
2022-07-29T14:29:44.102Z,45.99
2022-07-29T14:31:36.557Z,45.97
2022-07-29T14:32:36.426Z,45.58
2022-07-29T14:34:28.883Z,45.70
2022-07-29T14:35:28.752Z,45.77
2022-07-29T14:37:21.090Z,46.18
2022-07-29T14:38:21.076Z,45.89
2022-07-29T14:40:14.568Z,45.87
2022-07-29T14:41:14.410Z,46.15
2022-07-29T14:43:06.745Z,45.60
2022-07-29T14:44:06.736Z,45.97
2022-07-29T14:46:03.000Z,45.87
2022-07-29T14:46:59.062Z,45.97
2022-07-29T14:48:51.490Z,45.89
2022-07-29T14:49:51.406Z,45.97
2022-07-29T14:51:43.812Z,45.87
2022-07-29T14:52:43.737Z,45.77
2022-07-29T14:54:36.077Z,45.77
2022-07-29T14:55:36.062Z,45.97
2022-07-29T14:57:28.543Z,45.87
2022-07-29T14:58:28.420Z,45.99
2022-07-29T15:00:20.752Z,45.97
2022-07-29T15:01:20.818Z,45.97
2022-07-29T15:03:13.239Z,46.47
2022-07-29T15:04:13.063Z,45.97
2022-07-29T15:06:05.404Z,45.99
2022-07-29T15:07:05.386Z,46.55
2022-07-29T15:08:57.812Z,46.47
2022-07-29T15:09:59.731Z,46.45
2022-07-29T15:11:50.043Z,46.47
2022-07-29T15:12:50.028Z,46.28
2022-07-29T15:14:42.457Z,46.25
2022-07-29T15:15:42.351Z,46.25
2022-07-29T15:17:34.699Z,46.25
2022-07-29T15:18:34.674Z,46.45
2022-07-29T15:20:27.107Z,46.37
2022-07-29T15:21:26.999Z,45.97
2022-07-29T15:23:19.340Z,46.15
2022-07-29T15:24:19.336Z,46.25
2022-07-29T15:26:11.762Z,46.06
2022-07-29T15:27:11.652Z,46.18
2022-07-29T15:29:03.991Z,46.15
2022-07-29T15:30:03.972Z,46.15
2022-07-29T15:31:56.767Z,46.15
2022-07-29T15:32:56.294Z,46.18
2022-07-29T15:34:48.634Z,46.15
2022-07-29T15:35:48.621Z,45.97
2022-07-29T15:37:49.240Z,46.15
2022-07-29T15:38:41.986Z,46.06
2022-07-29T15:40:33.288Z,46.15
2022-07-29T15:41:33.271Z,46.06
2022-07-29T15:43:26.481Z,46.15
2022-07-29T15:44:25.640Z,46.06
2022-07-29T15:46:18.033Z,46.15
2022-07-29T15:47:17.983Z,45.97
2022-07-29T15:49:10.525Z,45.97
2022-07-29T15:50:10.303Z,45.97
2022-07-29T15:52:02.646Z,46.15
2022-07-29T15:53:02.639Z,45.97
2022-07-29T15:54:55.076Z,46.15
2022-07-29T15:55:54.960Z,46.15
2022-07-29T15:57:47.299Z,45.87
2022-07-29T15:58:47.285Z,45.97
2022-07-29T16:00:39.756Z,45.97
2022-07-29T16:01:42.464Z,45.97
2022-07-29T16:03:31.980Z,46.15
2022-07-29T16:04:31.930Z,46.35
2022-07-29T16:06:24.335Z,46.35
2022-07-29T16:07:24.260Z,46.35
2022-07-29T16:09:16.595Z,46.25
2022-07-29T16:10:16.580Z,46.25
2022-07-29T16:12:14.640Z,46.15
2022-07-29T16:13:08.905Z,46.06
2022-07-29T16:15:03.945Z,46.45
2022-07-29T16:16:02.550Z,46.15
2022-07-29T16:17:53.696Z,46.45
2022-07-29T16:18:53.556Z,46.45
2022-07-29T16:20:45.894Z,46.25
2022-07-29T16:21:45.880Z,46.15
2022-07-29T16:23:39.283Z,46.45
2022-07-29T16:24:39.226Z,46.25
2022-07-29T16:26:31.543Z,46.28
2022-07-29T16:27:35.653Z,46.45
2022-07-29T16:29:23.957Z,46.45
2022-07-29T16:30:23.847Z,46.45
2022-07-29T16:32:16.187Z,46.45
2022-07-29T16:33:16.171Z,46.45
2022-07-29T16:35:08.577Z,46.45
2022-07-29T16:36:08.497Z,46.45
2022-07-29T16:38:01.833Z,46.45
2022-07-29T16:39:01.820Z,46.55
2022-07-29T16:40:54.223Z,46.55
2022-07-29T16:41:58.274Z,46.55
2022-07-29T16:43:46.490Z,46.55
2022-07-29T16:44:46.476Z,46.35
2022-07-29T16:46:39.061Z,46.55
2022-07-29T16:47:38.815Z,46.35
2022-07-29T16:49:31.153Z,46.45
2022-07-29T16:50:31.139Z,46.35
2022-07-29T16:52:23.612Z,46.45
2022-07-29T16:53:27.163Z,46.45
2022-07-29T16:55:15.807Z,46.45
2022-07-29T16:56:15.794Z,46.55
2022-07-29T16:58:08.198Z,46.45
2022-07-29T16:59:08.119Z,46.45
2022-07-29T17:01:00.565Z,46.45
2022-07-29T17:02:00.469Z,46.55
2022-07-29T17:03:55.969Z,46.45
2022-07-29T17:04:52.775Z,46.45
2022-07-29T17:06:45.115Z,46.45
2022-07-29T17:07:45.101Z,46.55
2022-07-29T17:09:37.543Z,46.45
2022-07-29T17:10:37.438Z,46.45
2022-07-29T17:12:29.774Z,46.45
2022-07-29T17:13:29.757Z,46.45
2022-07-29T17:15:22.215Z,46.35
2022-07-29T17:16:22.091Z,46.35
2022-07-29T17:18:14.418Z,46.35
2022-07-29T17:19:14.402Z,46.25
2022-07-29T17:21:06.355Z,46.25
2022-07-29T17:22:12.999Z,46.83
2022-07-29T17:23:58.583Z,46.25
2022-07-29T17:24:58.565Z,46.35
2022-07-29T17:26:50.977Z,46.35
2022-07-29T17:27:50.899Z,46.25
2022-07-29T17:29:43.236Z,46.45
2022-07-29T17:30:43.221Z,46.35
2022-07-29T17:32:35.652Z,46.35
2022-07-29T17:33:35.544Z,46.25
2022-07-29T17:35:27.882Z,46.35
2022-07-29T17:36:27.865Z,46.45
2022-07-29T17:38:20.303Z,46.45
2022-07-29T17:39:20.188Z,46.64
2022-07-29T17:41:12.527Z,46.45
2022-07-29T17:42:12.509Z,46.55
2022-07-29T17:44:05.019Z,46.83
2022-07-29T17:45:04.835Z,46.15
2022-07-29T17:46:57.605Z,46.73
2022-07-29T17:47:57.169Z,46.45
2022-07-29T17:49:49.582Z,46.64
2022-07-29T17:50:49.507Z,46.55
2022-07-29T17:52:41.843Z,46.64
2022-07-29T17:53:41.827Z,46.73
2022-07-29T17:55:34.233Z,46.73
2022-07-29T17:56:34.155Z,46.73
2022-07-29T17:58:26.489Z,46.73
2022-07-29T17:59:26.473Z,46.73
2022-07-29T18:01:18.974Z,46.55
2022-07-29T18:02:18.868Z,46.55
2022-07-29T18:04:11.133Z,46.83
2022-07-29T18:05:11.118Z,46.55
2022-07-29T18:07:03.576Z,46.64
2022-07-29T18:08:03.440Z,46.55
2022-07-29T18:10:00.323Z,46.55
2022-07-29T18:10:55.765Z,46.55
2022-07-29T18:12:48.215Z,46.55
2022-07-29T18:13:48.084Z,46.55
2022-07-29T18:15:40.421Z,46.35
2022-07-29T18:16:40.438Z,46.35
2022-07-29T18:18:33.852Z,46.35
2022-07-29T18:19:33.731Z,46.45
2022-07-29T18:21:42.627Z,46.35
2022-07-29T18:22:26.060Z,46.35
2022-07-29T18:24:18.516Z,46.45
2022-07-29T18:25:18.388Z,46.45
2022-07-29T18:26:18.377Z,46.55
2022-07-29T18:27:18.368Z,46.64
2022-07-29T18:28:18.356Z,47.03
2022-07-29T18:29:18.345Z,46.45
2022-07-29T18:30:18.335Z,47.03